METAR AND TAF INFORMATION
METAR FOR EBFN
ADDS - METARS form results

(1251 UTC 27 June 2019)
Data provider http://aviationweather.gov/metar/data/
 
Forecast for: EBFN (KOKSIJDE (BEL-AF, BE)
Text: TAF EBFN 271141Z 2713/2722 04015KT 9999 SKC
Forecast period: 1300 to 2200 UTC 27 June 2019
Forecast type: FROM: standard forecast or significant change
Winds: from the NE (40 degrees) at 17 MPH (15 knots; 7.7 m/s)
Visibility: 6 or more miles 10+ km)
Clouds: clear skies
Weather: no significant weather forecast for this period

 AIRPORT MAP

 RUNWAY INFORMATION
Runway 11 Runway length 8786 ft Runway width 164 ft
Runway elevation 14 ft Runway displaced threshold 1526 ft Runway heading 108
Runway 29 Runway length 8786 ft Runway width 164 ft
Runway elevation 20 ft Runway displaced threshold 311 ft Runway heading 288

 AIRPORT FREQUENCIES
Type APP Name APP Frequency 122.5 MHZ
Type EMR Name SAR Frequency 123.1 MHZ
Type EMR Name SAR Frequency 568 MHZ
Type GND Name TAXI Frequency 122.1 MHZ
Type INFO Name BELGA INFO Frequency 129.325 MHZ
Type TWR Name TWR Frequency 122.1 MHZ

 AIRPORT NEAR NAVIGATION AIDS
Type VORTAC Name Koksy Frequency 114500 KHZ